Richmond International Airport
KRIC : now visible

Airfield :











YOU CAN JOIN US ON...

 
LOGIN :

Register | Disclaimer

   EN    FR    IT 

 









Legend :    VFR   Marginal VFR   IFR   Intensive IFR   Very Intensive IFR
Visi :
Ceiling :
>= 8 km
>= 3000ft
5 to 8 km
1000 to 3000 ft
1500m to 5 km
500 to 1000 ft
800 to 1500m
200 to 500 ft
< 800m
< 200 ft
Symbols :   Thunderstorms  Fog  Heavy snow  Heavy precipitations  Wind > 20 kt







- Airport Elevation : 167 ft
- IATA code : RIC


KRIC - Richmond International

CURRENT METAR :
  • 220954Z 03005KT 10SM FEW300 12/09 A3019 RMK AO2 SLP229 T01220089

EXPIRED METARs :
  • 220854Z 36004KT 10SM CLR 12/09 A3018 RMK AO2 SLP223 T01220094 53009
  • 220754Z 00000KT 10SM FEW300 13/09 A3017 RMK AO2 SLP221 T01330094

TAF KRIC
Valid from the 22 at 06:00 until the 23 at 06:00 UTC


220527Z 2206/2306 00000KT P6SM SKC
FM221300 08004KT P6SM SKC
FM221600 16007KT P6SM SCT050
FM222200 14005KT P6SM SKC
KZDC FIR / North America



MET'MAP, your aeronautical weather chart ! - Copyright ORBIFLY December 2007 - Disclaimer

ORBIFLY MET'MAP TEAM :

Programming & Development : Alexandra Zaïnal
Concept & Development : Baudouin d'Aumeries
Co-Development & Prog : Marc-Olivier Méhu
Technical & hardware support : Manuel Goepfert

Contact : metmap@orbifly.com




SOURCES & CREDITS :

   NOAA       Earth
Advisory